Time;durP1;ratioP1;P1;durP2;ratioP2;P2;SDS_P1;SDS_P2;PMS_P1;PMS_P2;Temp;Humidity;BMP_temperature;BMP_pressure;BME280_temperature;BME280_humidity;BME280_pressure;Samples;Min_cycle;Max_cycle;Signal;HPM_P1;HPM_P2
2022/05/26 00:01:20;;;;;;;2.72;1.80;;;;;;;;;;5062704;28;20078;-60
2022/05/26 00:03:46;;;;;;;2.42;1.90;;;;;;;;;;5054023;28;20125;-60
2022/05/26 00:06:14;;;;;;;1.98;1.60;;;;;;;;;;5050245;28;20116;-60
2022/05/26 00:08:40;;;;;;;5.95;1.92;;;;;;;;;;5065155;28;20036;-60
2022/05/26 00:11:11;;;;;;;4.75;2.60;;;;;;;;;;5063674;28;20028;-60
2022/05/26 00:13:38;;;;;;;4.13;2.45;;;;;;;;;;5058174;28;20040;-60
2022/05/26 00:16:04;;;;;;;3.85;2.63;;;;;;;;;;5053108;28;20086;-60
2022/05/26 00:18:30;;;;;;;4.97;2.80;;;;;;;;;;5071423;28;20028;-60
2022/05/26 00:20:55;;;;;;;5.53;3.53;;;;;;;;;;5064888;28;20634;-60
2022/05/26 00:23:21;;;;;;;4.70;2.95;;;;;;;;;;5061403;28;20052;-60
2022/05/26 00:25:46;;;;;;;4.32;2.25;;;;;;;;;;5059540;28;20040;-59
2022/05/26 00:28:12;;;;;;;2.30;2.00;;;;;;;;;;5060578;28;20060;-60
2022/05/26 00:30:37;;;;;;;4.40;2.25;;;;;;;;;;5070801;28;20048;-62
2022/05/26 00:33:05;;;;;;;4.15;2.17;;;;;;;;;;5068580;28;20072;-59
2022/05/26 00:35:34;;;;;;;3.58;2.50;;;;;;;;;;5064677;28;20033;-59
2022/05/26 00:38:02;;;;;;;4.35;2.50;;;;;;;;;;5050038;28;20042;-59
2022/05/26 00:40:27;;;;;;;3.80;2.80;;;;;;;;;;5060855;28;20550;-59
2022/05/26 00:42:52;;;;;;;3.55;2.70;;;;;;;;;;5070040;28;20036;-59
2022/05/26 00:45:58;;;;;;;4.43;2.40;;;;;;;;;;5070737;28;20457;-60
2022/05/26 00:48:27;;;;;;;4.00;2.40;;;;;;;;;;5064742;28;20055;-59
2022/05/26 00:50:59;;;;;;;3.67;2.50;;;;;;;;;;5069251;28;20067;-61
2022/05/26 00:53:53;;;;;;;4.10;2.20;;;;;;;;;;5058512;28;20136;-61
2022/05/26 00:56:55;;;;;;;5.47;2.53;;;;;;;;;;5054929;28;20116;-61
2022/05/26 00:59:28;;;;;;;3.28;2.20;;;;;;;;;;5057106;28;20028;-61
2022/05/26 01:01:55;;;;;;;5.13;2.10;;;;;;;;;;5066128;28;20028;-61
2022/05/26 01:04:24;;;;;;;4.82;2.28;;;;;;;;;;5063170;28;20475;-61
2022/05/26 01:07:07;;;;;;;5.13;2.40;;;;;;;;;;5072980;28;20543;-61
2022/05/26 01:09:32;;;;;;;4.78;2.33;;;;;;;;;;5074673;28;20373;-61
2022/05/26 01:11:57;;;;;;;5.10;2.53;;;;;;;;;;5061700;28;20020;-61
2022/05/26 01:14:33;;;;;;;5.57;2.40;;;;;;;;;;5055355;28;20101;-61
2022/05/26 01:17:09;;;;;;;5.88;2.72;;;;;;;;;;5066453;28;20359;-61
2022/05/26 01:19:49;;;;;;;5.22;2.60;;;;;;;;;;5074649;28;20036;-60
2022/05/26 01:22:31;;;;;;;6.03;2.75;;;;;;;;;;5056736;28;20075;-61
2022/05/26 01:25:20;;;;;;;6.80;3.00;;;;;;;;;;5053444;28;20041;-61
2022/05/26 01:28:12;;;;;;;4.57;2.80;;;;;;;;;;5072420;28;20024;-62
2022/05/26 01:30:52;;;;;;;4.95;2.95;;;;;;;;;;5051829;28;20036;-61
2022/05/26 01:33:42;;;;;;;6.40;3.53;;;;;;;;;;5054476;28;20036;-61
2022/05/26 01:36:15;;;;;;;5.60;3.80;;;;;;;;;;5061024;28;20093;-61
2022/05/26 01:38:55;;;;;;;5.57;3.72;;;;;;;;;;5058970;28;20071;-61
2022/05/26 01:41:49;;;;;;;8.23;3.58;;;;;;;;;;5064453;28;20029;-61
2022/05/26 01:44:35;;;;;;;5.50;3.67;;;;;;;;;;5066060;28;20033;-61
2022/05/26 01:50:41;;;;;;;4.75;3.50;;;;;;;;;;5055285;28;20533;-61
2022/05/26 01:53:15;;;;;;;4.88;3.40;;;;;;;;;;5105089;28;20425;-61
2022/05/26 01:55:53;;;;;;;6.10;3.40;;;;;;;;;;5064879;28;20457;-61
2022/05/26 01:58:37;;;;;;;6.63;3.58;;;;;;;;;;5055194;28;20111;-61
2022/05/26 02:01:09;;;;;;;6.68;3.70;;;;;;;;;;5067293;28;20807;-61
2022/05/26 02:03:38;;;;;;;7.10;3.53;;;;;;;;;;5062140;28;20045;-61
2022/05/26 02:06:13;;;;;;;6.03;3.03;;;;;;;;;;5061913;28;20063;-61
2022/05/26 02:08:48;;;;;;;4.72;3.22;;;;;;;;;;5069559;28;20032;-61
2022/05/26 02:11:17;;;;;;;6.47;3.17;;;;;;;;;;5062336;28;20112;-61
2022/05/26 02:13:51;;;;;;;7.22;3.38;;;;;;;;;;5058050;28;20033;-61
2022/05/26 02:16:33;;;;;;;6.00;3.33;;;;;;;;;;5054436;28;20087;-61
2022/05/26 02:19:13;;;;;;;4.43;3.20;;;;;;;;;;5061116;28;20105;-61
2022/05/26 02:21:44;;;;;;;4.88;3.20;;;;;;;;;;5097150;28;20028;-61
2022/05/26 02:24:39;;;;;;;6.53;2.80;;;;;;;;;;5069341;28;20044;-61
2022/05/26 02:27:05;;;;;;;5.07;3.17;;;;;;;;;;5048994;28;20051;-60
2022/05/26 02:32:21;;;;;;;5.22;3.33;;;;;;;;;;5073184;28;20063;-60
2022/05/26 02:34:49;;;;;;;6.38;3.65;;;;;;;;;;5056494;28;20039;-61
2022/05/26 02:37:14;;;;;;;4.90;3.10;;;;;;;;;;5053537;28;20044;-61
2022/05/26 02:39:40;;;;;;;6.65;3.50;;;;;;;;;;5053263;28;20029;-60
2022/05/26 02:42:07;;;;;;;6.20;3.28;;;;;;;;;;5051235;28;20044;-61
2022/05/26 02:44:33;;;;;;;6.32;3.40;;;;;;;;;;5053793;28;20041;-60
2022/05/26 02:47:12;;;;;;;5.60;3.60;;;;;;;;;;5065484;28;20431;-61
2022/05/26 02:50:12;;;;;;;5.88;3.08;;;;;;;;;;5059146;28;20436;-60
2022/05/26 02:52:43;;;;;;;5.03;3.13;;;;;;;;;;5045282;28;20114;-60
2022/05/26 02:55:46;;;;;;;6.68;3.30;;;;;;;;;;5072513;28;20063;-60
2022/05/26 02:58:35;;;;;;;6.57;3.30;;;;;;;;;;5068658;28;20490;-61
2022/05/26 03:01:19;;;;;;;5.70;3.28;;;;;;;;;;5064638;28;20035;-61
2022/05/26 03:03:51;;;;;;;6.13;3.55;;;;;;;;;;5068655;28;20036;-61
2022/05/26 03:06:36;;;;;;;5.63;3.50;;;;;;;;;;5067114;28;20079;-60
2022/05/26 03:09:03;;;;;;;8.45;3.95;;;;;;;;;;5071747;28;20111;-60
2022/05/26 03:11:29;;;;;;;7.18;4.07;;;;;;;;;;5056878;28;20045;-60
2022/05/26 03:13:54;;;;;;;9.30;3.58;;;;;;;;;;5071652;28;20033;-60
2022/05/26 03:16:20;;;;;;;10.10;4.00;;;;;;;;;;5068048;28;20060;-60
2022/05/26 03:18:46;;;;;;;7.03;3.75;;;;;;;;;;5071871;28;20031;-61
2022/05/26 03:21:13;;;;;;;7.95;3.88;;;;;;;;;;5066872;28;20043;-60
2022/05/26 03:23:39;;;;;;;7.28;3.60;;;;;;;;;;5072386;28;20051;-60
2022/05/26 03:26:06;;;;;;;8.70;3.50;;;;;;;;;;5069634;28;20615;-60
2022/05/26 03:28:31;;;;;;;6.82;3.97;;;;;;;;;;5052282;28;20033;-60
2022/05/26 03:30:57;;;;;;;7.07;4.03;;;;;;;;;;5060309;28;20427;-61
2022/05/26 03:33:23;;;;;;;7.60;4.30;;;;;;;;;;5070181;28;20116;-60
2022/05/26 03:41:28;;;;;;;6.50;3.67;;;;;;;;;;5050726;28;20040;-60
2022/05/26 03:43:57;;;;;;;7.65;3.85;;;;;;;;;;5071310;28;20029;-60
2022/05/26 03:46:24;;;;;;;7.55;4.20;;;;;;;;;;5059112;28;20025;-60
2022/05/26 03:48:50;;;;;;;7.72;3.92;;;;;;;;;;5064435;28;20061;-61
2022/05/26 03:51:15;;;;;;;8.50;4.40;;;;;;;;;;5051703;28;20044;-60
2022/05/26 03:53:40;;;;;;;7.88;4.07;;;;;;;;;;5051582;28;20056;-60
2022/05/26 03:56:06;;;;;;;6.95;3.92;;;;;;;;;;5057743;28;20035;-60
2022/05/26 03:58:32;;;;;;;6.55;4.30;;;;;;;;;;5068761;28;20036;-61
2022/05/26 04:01:02;;;;;;;9.52;4.57;;;;;;;;;;5050685;28;20216;-61
2022/05/26 04:03:27;;;;;;;8.20;4.53;;;;;;;;;;5065939;28;20443;-60
2022/05/26 04:05:53;;;;;;;9.55;4.40;;;;;;;;;;5061496;28;20040;-60
2022/05/26 04:08:18;;;;;;;7.38;4.28;;;;;;;;;;5050862;28;20112;-61
2022/05/26 04:10:43;;;;;;;7.20;3.90;;;;;;;;;;5036538;28;20075;-60
2022/05/26 04:13:09;;;;;;;9.07;4.88;;;;;;;;;;5067880;28;20488;-60
2022/05/26 04:15:35;;;;;;;8.23;4.15;;;;;;;;;;5065737;28;20107;-59
2022/05/26 04:18:00;;;;;;;10.48;5.10;;;;;;;;;;5067693;28;20078;-59
2022/05/26 04:20:25;;;;;;;7.45;4.53;;;;;;;;;;5059425;28;20044;-59
2022/05/26 04:22:51;;;;;;;8.55;5.18;;;;;;;;;;5066907;28;20115;-60
2022/05/26 04:25:20;;;;;;;6.85;4.38;;;;;;;;;;5051920;28;20462;-60
2022/05/26 04:27:45;;;;;;;8.10;4.70;;;;;;;;;;5051685;28;20545;-59
2022/05/26 04:30:12;;;;;;;9.93;5.63;;;;;;;;;;5052629;28;20152;-59
2022/05/26 04:32:39;;;;;;;10.32;5.70;;;;;;;;;;5038207;28;20036;-59
2022/05/26 04:35:05;;;;;;;11.10;5.65;;;;;;;;;;5053229;28;20025;-59
2022/05/26 04:37:31;;;;;;;9.27;6.00;;;;;;;;;;5066305;28;20024;-59
2022/05/26 04:39:58;;;;;;;13.57;6.22;;;;;;;;;;5047856;28;20041;-60
2022/05/26 04:42:24;;;;;;;11.57;5.80;;;;;;;;;;5069396;28;20060;-59
2022/05/26 04:44:50;;;;;;;9.13;5.63;;;;;;;;;;5053475;28;20052;-60
2022/05/26 04:47:17;;;;;;;10.05;5.43;;;;;;;;;;5065142;28;20070;-60
2022/05/26 04:49:43;;;;;;;9.38;5.60;;;;;;;;;;5068899;28;20040;-59
2022/05/26 04:52:15;;;;;;;8.23;5.38;;;;;;;;;;5054689;28;20991;-59
2022/05/26 04:54:42;;;;;;;9.93;5.78;;;;;;;;;;5055538;28;20128;-59
2022/05/26 04:57:08;;;;;;;11.30;6.50;;;;;;;;;;5043318;28;20123;-60
2022/05/26 04:59:34;;;;;;;13.93;6.57;;;;;;;;;;5015095;28;20474;-60
2022/05/26 05:02:00;;;;;;;11.88;6.63;;;;;;;;;;5045210;28;20071;-61
2022/05/26 05:04:27;;;;;;;14.35;6.78;;;;;;;;;;5039269;28;20048;-61
2022/05/26 05:06:54;;;;;;;12.45;7.47;;;;;;;;;;5033443;28;20489;-61
2022/05/26 05:09:21;;;;;;;12.13;6.93;;;;;;;;;;5048694;28;20060;-61
2022/05/26 05:11:47;;;;;;;13.70;7.85;;;;;;;;;;5048130;28;20037;-61
2022/05/26 05:14:13;;;;;;;17.23;7.40;;;;;;;;;;5017107;28;20316;-61
2022/05/26 05:16:42;;;;;;;14.75;8.02;;;;;;;;;;5032816;28;20470;-61
2022/05/26 05:19:14;;;;;;;13.40;8.57;;;;;;;;;;5030209;28;20033;-59
2022/05/26 05:21:58;;;;;;;15.18;8.40;;;;;;;;;;5041273;28;20075;-60
2022/05/26 05:24:29;;;;;;;14.63;8.60;;;;;;;;;;5050060;28;20025;-59
2022/05/26 05:27:00;;;;;;;17.27;9.10;;;;;;;;;;5049406;28;20025;-60
2022/05/26 05:29:33;;;;;;;16.35;8.93;;;;;;;;;;5042428;28;20038;-60
2022/05/26 05:32:04;;;;;;;15.38;8.85;;;;;;;;;;5053541;28;20029;-60
2022/05/26 05:34:41;;;;;;;16.13;8.63;;;;;;;;;;5046705;28;20107;-61
2022/05/26 05:37:07;;;;;;;15.80;9.05;;;;;;;;;;5053507;28;20025;-60
2022/05/26 05:39:33;;;;;;;16.48;8.82;;;;;;;;;;5047690;28;20045;-61
2022/05/26 05:41:59;;;;;;;13.95;8.88;;;;;;;;;;5049332;28;20041;-60
2022/05/26 05:44:29;;;;;;;18.77;9.20;;;;;;;;;;5046364;28;20483;-61
2022/05/26 05:46:54;;;;;;;18.00;10.15;;;;;;;;;;5053605;28;20028;-61
2022/05/26 05:49:22;;;;;;;16.45;9.15;;;;;;;;;;5044867;28;20086;-60
2022/05/26 05:51:47;;;;;;;18.58;9.50;;;;;;;;;;5042726;28;20040;-60
2022/05/26 05:54:13;;;;;;;16.17;9.48;;;;;;;;;;5059302;28;20136;-60
2022/05/26 05:56:38;;;;;;;16.88;9.52;;;;;;;;;;5069848;28;20033;-62
2022/05/26 05:59:04;;;;;;;13.63;9.43;;;;;;;;;;5069022;28;20029;-61
2022/05/26 06:01:30;;;;;;;16.52;9.65;;;;;;;;;;5071789;28;20461;-60
2022/05/26 06:03:55;;;;;;;17.70;9.18;;;;;;;;;;5072448;28;20435;-60
2022/05/26 06:06:21;;;;;;;19.60;9.65;;;;;;;;;;5071479;28;20044;-60
2022/05/26 06:08:46;;;;;;;15.63;9.45;;;;;;;;;;5072273;28;20079;-60
2022/05/26 06:11:12;;;;;;;17.25;9.98;;;;;;;;;;5071695;28;20036;-60
2022/05/26 06:13:37;;;;;;;16.85;9.80;;;;;;;;;;5069226;28;20028;-60
2022/05/26 06:16:03;;;;;;;16.63;10.32;;;;;;;;;;5059507;28;20097;-60
2022/05/26 06:18:29;;;;;;;15.38;7.80;;;;;;;;;;5063225;28;20115;-62
2022/05/26 06:21:06;;;;;;;18.20;9.90;;;;;;;;;;5070380;28;20119;-60
2022/05/26 06:23:31;;;;;;;18.33;9.52;;;;;;;;;;5053001;28;20037;-60
2022/05/26 06:25:57;;;;;;;17.85;9.88;;;;;;;;;;5064696;28;20086;-60
2022/05/26 06:31:07;;;;;;;14.77;9.02;;;;;;;;;;5070699;28;20077;-61
2022/05/26 06:39:00;;;;;;;18.90;9.88;;;;;;;;;;5066145;28;20111;-61
2022/05/26 06:44:11;;;;;;;14.30;9.23;;;;;;;;;;5057033;28;20071;-61
2022/05/26 06:46:36;;;;;;;18.00;9.93;;;;;;;;;;5070608;28;20111;-61
2022/05/26 06:49:02;;;;;;;18.42;10.07;;;;;;;;;;5068444;28;20112;-61
2022/05/26 06:51:29;;;;;;;19.52;10.20;;;;;;;;;;5035186;28;20036;-60
2022/05/26 06:53:55;;;;;;;19.02;9.32;;;;;;;;;;5054854;28;20045;-60
2022/05/26 06:56:20;;;;;;;17.65;10.18;;;;;;;;;;5069736;28;20028;-60
2022/05/26 06:58:46;;;;;;;19.02;10.27;;;;;;;;;;5070515;28;20658;-60
2022/05/26 07:01:14;;;;;;;16.35;9.35;;;;;;;;;;5066570;28;20081;-60
2022/05/26 07:03:41;;;;;;;14.30;9.65;;;;;;;;;;5065271;28;20112;-61
2022/05/26 07:06:17;;;;;;;17.48;10.15;;;;;;;;;;5056495;28;20470;-60
2022/05/26 07:08:47;;;;;;;21.95;10.50;;;;;;;;;;5038245;28;20037;-60
2022/05/26 07:11:13;;;;;;;19.20;10.10;;;;;;;;;;5051838;28;20078;-60
2022/05/26 07:13:38;;;;;;;16.65;10.32;;;;;;;;;;5052359;28;20041;-60
2022/05/26 07:16:05;;;;;;;16.88;9.75;;;;;;;;;;5058388;28;20153;-60
2022/05/26 07:18:31;;;;;;;16.65;10.07;;;;;;;;;;5070630;28;20493;-60
2022/05/26 07:20:56;;;;;;;17.60;9.95;;;;;;;;;;5069823;28;20033;-60
2022/05/26 07:23:22;;;;;;;13.80;8.75;;;;;;;;;;5060988;28;20136;-60
2022/05/26 07:25:47;;;;;;;20.25;9.68;;;;;;;;;;5051935;28;20029;-59
2022/05/26 07:28:12;;;;;;;15.48;10.20;;;;;;;;;;5057467;28;20048;-61
2022/05/26 07:30:39;;;;;;;19.77;10.30;;;;;;;;;;5053695;28;20114;-61
2022/05/26 07:33:05;;;;;;;21.75;9.65;;;;;;;;;;5052100;28;20035;-61
2022/05/26 07:35:30;;;;;;;17.10;10.05;;;;;;;;;;5058423;28;20539;-60
2022/05/26 07:43:26;;;;;;;20.77;9.50;;;;;;;;;;5068557;28;20051;-61
2022/05/26 07:45:51;;;;;;;18.45;9.88;;;;;;;;;;5056598;28;20397;-60
2022/05/26 07:48:17;;;;;;;17.10;10.02;;;;;;;;;;5080045;28;20158;-60
2022/05/26 07:50:42;;;;;;;18.95;10.25;;;;;;;;;;5070913;28;20062;-60
2022/05/26 07:53:08;;;;;;;18.02;9.90;;;;;;;;;;5068746;28;20444;-60
2022/05/26 07:55:33;;;;;;;15.82;10.13;;;;;;;;;;5069783;28;20032;-60
2022/05/26 07:57:59;;;;;;;17.75;9.32;;;;;;;;;;5037544;28;20037;-60
2022/05/26 08:00:25;;;;;;;14.75;9.73;;;;;;;;;;5068375;28;20035;-60
2022/05/26 08:02:50;;;;;;;16.92;9.07;;;;;;;;;;5070283;28;20040;-60
2022/05/26 08:05:16;;;;;;;17.30;9.60;;;;;;;;;;5069020;28;20032;-60
2022/05/26 08:07:43;;;;;;;15.70;9.45;;;;;;;;;;5071317;28;20066;-61
2022/05/26 08:10:09;;;;;;;16.75;9.30;;;;;;;;;;5061540;28;20079;-60
2022/05/26 08:12:34;;;;;;;18.10;9.23;;;;;;;;;;5069653;28;20116;-60
2022/05/26 08:15:00;;;;;;;15.15;8.63;;;;;;;;;;5069599;28;20103;-60
2022/05/26 08:17:25;;;;;;;17.77;8.80;;;;;;;;;;5057853;28;20049;-60
2022/05/26 08:19:51;;;;;;;15.13;9.10;;;;;;;;;;5055105;28;20083;-60
2022/05/26 08:22:18;;;;;;;14.43;8.45;;;;;;;;;;5043257;28;20021;-59
2022/05/26 08:24:52;;;;;;;19.67;9.43;;;;;;;;;;5069019;28;20033;-60
2022/05/26 08:27:18;;;;;;;12.23;8.35;;;;;;;;;;5058800;28;20031;-60
2022/05/26 08:29:44;;;;;;;17.80;9.05;;;;;;;;;;5060409;28;20115;-60
2022/05/26 08:32:09;;;;;;;13.55;8.20;;;;;;;;;;5050425;28;20028;-60
2022/05/26 08:34:34;;;;;;;17.80;9.75;;;;;;;;;;5065567;28;20025;-60
2022/05/26 08:37:00;;;;;;;14.90;8.48;;;;;;;;;;5064604;28;20484;-60
2022/05/26 08:39:26;;;;;;;13.23;8.20;;;;;;;;;;5067326;28;20047;-60
2022/05/26 08:41:53;;;;;;;15.90;8.50;;;;;;;;;;5068013;28;20385;-60
2022/05/26 08:44:36;;;;;;;15.13;7.75;;;;;;;;;;5067754;28;20135;-60
2022/05/26 08:47:11;;;;;;;12.13;7.97;;;;;;;;;;5051318;28;20047;-61
2022/05/26 08:49:43;;;;;;;12.85;7.75;;;;;;;;;;5070320;28;20040;-60
2022/05/26 08:52:13;;;;;;;16.92;8.05;;;;;;;;;;5061606;28;20040;-60
2022/05/26 08:54:44;;;;;;;16.38;7.78;;;;;;;;;;5070017;28;20127;-60
2022/05/26 08:57:17;;;;;;;13.23;8.00;;;;;;;;;;5068085;28;20035;-60
2022/05/26 08:59:45;;;;;;;12.98;7.93;;;;;;;;;;5070806;28;20040;-60
2022/05/26 09:02:33;;;;;;;12.48;7.78;;;;;;;;;;5060603;28;20120;-60
2022/05/26 09:05:03;;;;;;;13.60;8.48;;;;;;;;;;5043577;28;20466;-61
2022/05/26 09:13:12;;;;;;;14.43;7.93;;;;;;;;;;5072783;28;20090;-60
2022/05/26 09:15:38;;;;;;;12.18;6.57;;;;;;;;;;5064859;28;20037;-59
2022/05/26 09:18:16;;;;;;;13.48;7.03;;;;;;;;;;5066222;28;20025;-60
2022/05/26 09:20:44;;;;;;;9.98;5.68;;;;;;;;;;5072694;28;20044;-60
2022/05/26 09:23:28;;;;;;;9.25;5.80;;;;;;;;;;5054828;28;20404;-60
2022/05/26 09:26:08;;;;;;;10.80;6.47;;;;;;;;;;5069946;28;20033;-60
2022/05/26 09:28:45;;;;;;;11.85;6.47;;;;;;;;;;5070095;28;20036;-60
2022/05/26 09:31:29;;;;;;;14.52;7.10;;;;;;;;;;5070599;28;20411;-60
2022/05/26 09:34:25;;;;;;;10.25;6.57;;;;;;;;;;5057715;28;20029;-60
2022/05/26 09:37:00;;;;;;;9.63;6.18;;;;;;;;;;5040970;28;20059;-58
2022/05/26 09:39:34;;;;;;;10.77;5.35;;;;;;;;;;5065132;28;20039;-59
2022/05/26 09:42:02;;;;;;;9.88;5.47;;;;;;;;;;5073623;28;20036;-59
2022/05/26 09:44:49;;;;;;;11.50;5.85;;;;;;;;;;5063411;28;20028;-60
2022/05/26 09:47:44;;;;;;;12.30;6.07;;;;;;;;;;5052710;28;20029;-60
2022/05/26 09:50:33;;;;;;;10.43;6.72;;;;;;;;;;5049380;28;20142;-60
2022/05/26 09:52:59;;;;;;;14.55;6.20;;;;;;;;;;5063741;28;20033;-61
2022/05/26 09:55:28;;;;;;;10.35;5.55;;;;;;;;;;5068153;28;20526;-62
2022/05/26 09:58:09;;;;;;;8.43;4.43;;;;;;;;;;5068725;28;20033;-63
2022/05/26 10:00:35;;;;;;;;;;;;;;;;;;5054515;28;20044;-61
2022/05/26 10:03:08;;;;;;;11.55;5.38;;;;;;;;;;5069128;28;19916;-61
2022/05/26 10:05:46;;;;;;;9.38;5.20;;;;;;;;;;5058937;28;20040;-61
2022/05/26 10:08:23;;;;;;;7.50;4.35;;;;;;;;;;5054040;28;20472;-61
2022/05/26 10:11:05;;;;;;;8.55;4.70;;;;;;;;;;5052532;28;20073;-61
2022/05/26 10:13:46;;;;;;;11.65;5.40;;;;;;;;;;5064748;28;20086;-61
2022/05/26 10:16:37;;;;;;;11.02;5.45;;;;;;;;;;5062001;28;20035;-61
2022/05/26 10:19:02;;;;;;;;;;;;;;;;;;5065977;28;20537;-63
2022/05/26 10:21:42;;;;;;;9.70;5.35;;;;;;;;;;5070778;28;19912;-61
2022/05/26 10:24:31;;;;;;;12.40;5.47;;;;;;;;;;5070036;28;20040;-62
2022/05/26 10:27:14;;;;;;;14.07;6.38;;;;;;;;;;5055642;28;20032;-62
2022/05/26 10:29:46;;;;;;;9.15;5.72;;;;;;;;;;5058761;28;20064;-62
2022/05/26 10:32:50;;;;;;;9.65;5.75;;;;;;;;;;5053090;28;20029;-62
2022/05/26 10:35:33;;;;;;;9.70;5.95;;;;;;;;;;5020688;28;20037;-62
2022/05/26 10:38:37;;;;;;;7.40;5.35;;;;;;;;;;5063807;28;20041;-63
2022/05/26 10:41:29;;;;;;;9.98;6.13;;;;;;;;;;5054841;28;20064;-61
2022/05/26 10:43:57;;;;;;;10.38;6.50;;;;;;;;;;5061792;28;20036;-62
2022/05/26 10:46:27;;;;;;;10.23;6.03;;;;;;;;;;5065091;28;20025;-61
2022/05/26 10:49:30;;;;;;;9.25;6.00;;;;;;;;;;5066518;28;20473;-62
2022/05/26 10:52:00;;;;;;;9.75;5.60;;;;;;;;;;5053090;28;20063;-62
2022/05/26 10:54:54;;;;;;;8.32;4.80;;;;;;;;;;5047823;28;20051;-61
2022/05/26 10:57:31;;;;;;;8.88;4.47;;;;;;;;;;5069875;28;20036;-61
2022/05/26 11:00:09;;;;;;;8.27;4.00;;;;;;;;;;5058869;28;20029;-61
2022/05/26 11:02:56;;;;;;;9.68;4.53;;;;;;;;;;5062164;28;20040;-61
2022/05/26 11:05:35;;;;;;;10.93;5.00;;;;;;;;;;5071071;28;20037;-61
2022/05/26 11:08:36;;;;;;;7.55;4.93;;;;;;;;;;5068880;28;20099;-62
2022/05/26 11:11:23;;;;;;;7.10;4.10;;;;;;;;;;5056806;28;20029;-63
2022/05/26 11:14:03;;;;;;;8.10;4.30;;;;;;;;;;5058637;28;20067;-61
2022/05/26 11:19:35;;;;;;;8.13;4.93;;;;;;;;;;5067925;28;20043;-62
2022/05/26 11:22:03;;;;;;;8.55;5.07;;;;;;;;;;5034620;28;20047;-62
2022/05/26 11:24:28;;;;;;;8.00;4.80;;;;;;;;;;5059699;28;20507;-62
2022/05/26 11:27:06;;;;;;;8.40;4.15;;;;;;;;;;5064167;28;20060;-62
2022/05/26 11:29:37;;;;;;;9.68;4.90;;;;;;;;;;5066068;28;20029;-62
2022/05/26 11:38:13;;;;;;;7.22;4.15;;;;;;;;;;5066177;28;20499;-63
2022/05/26 11:40:55;;;;;;;7.20;4.03;;;;;;;;;;5068175;28;20457;-62
2022/05/26 11:43:39;;;;;;;8.40;4.50;;;;;;;;;;5042310;28;20037;-62
2022/05/26 11:46:09;;;;;;;6.55;3.92;;;;;;;;;;5052119;28;20033;-62
2022/05/26 11:48:34;;;;;;;7.70;4.30;;;;;;;;;;5051639;28;20024;-63
2022/05/26 11:51:01;;;;;;;8.30;4.75;;;;;;;;;;5062757;28;20028;-62
2022/05/26 11:53:35;;;;;;;6.60;4.38;;;;;;;;;;5079356;28;20501;-61
2022/05/26 11:56:23;;;;;;;7.35;4.20;;;;;;;;;;5063206;28;20123;-62
2022/05/26 11:59:17;;;;;;;7.82;4.30;;;;;;;;;;5057565;28;20090;-62
2022/05/26 12:02:07;;;;;;;7.82;4.53;;;;;;;;;;5066910;28;20111;-62
2022/05/26 12:04:38;;;;;;;7.65;4.53;;;;;;;;;;5058428;28;20392;-62
2022/05/26 12:07:25;;;;;;;6.10;3.90;;;;;;;;;;5058035;28;20044;-62
2022/05/26 12:09:54;;;;;;;6.72;3.47;;;;;;;;;;5059034;28;20079;-62
2022/05/26 12:12:22;;;;;;;9.07;4.20;;;;;;;;;;5065502;28;20033;-62
2022/05/26 12:14:47;;;;;;;6.20;3.90;;;;;;;;;;5060070;28;20043;-62
2022/05/26 12:17:34;;;;;;;8.25;3.90;;;;;;;;;;5054249;28;20037;-62
2022/05/26 12:20:11;;;;;;;6.97;3.65;;;;;;;;;;5051328;28;20493;-62
2022/05/26 12:23:02;;;;;;;7.80;4.03;;;;;;;;;;5057744;28;20223;-62
2022/05/26 12:25:31;;;;;;;;;;;;;;;;;;5056144;28;20031;-62
2022/05/26 12:28:02;;;;;;;9.02;4.15;;;;;;;;;;5059473;28;19995;-62
2022/05/26 12:30:46;;;;;;;6.40;4.18;;;;;;;;;;5069620;28;20477;-61
2022/05/26 12:33:33;;;;;;;7.93;4.20;;;;;;;;;;5067011;28;20047;-62
2022/05/26 12:36:13;;;;;;;7.45;3.80;;;;;;;;;;5062935;28;20384;-64
2022/05/26 12:39:21;;;;;;;10.07;5.18;;;;;;;;;;5056256;28;20476;-63
2022/05/26 12:41:56;;;;;;;7.50;4.03;;;;;;;;;;5012586;28;20037;-63
2022/05/26 12:44:56;;;;;;;6.63;3.45;;;;;;;;;;5052289;28;20377;-62
2022/05/26 12:47:48;;;;;;;5.47;3.40;;;;;;;;;;5065960;28;20439;-61
2022/05/26 12:50:24;;;;;;;7.35;4.13;;;;;;;;;;5043534;28;20079;-64
2022/05/26 12:52:56;;;;;;;8.85;4.28;;;;;;;;;;5065941;28;20040;-62
2022/05/26 12:55:24;;;;;;;8.75;4.45;;;;;;;;;;5073232;28;20110;-63
2022/05/26 12:58:06;;;;;;;11.55;3.92;;;;;;;;;;5048073;28;20028;-63
2022/05/26 13:00:33;;;;;;;6.43;3.80;;;;;;;;;;5073221;28;20027;-63
2022/05/26 13:03:13;;;;;;;7.78;3.83;;;;;;;;;;5066604;28;20056;-62
2022/05/26 13:05:45;;;;;;;6.63;3.58;;;;;;;;;;5072782;28;20033;-62
2022/05/26 13:08:16;;;;;;;8.73;3.60;;;;;;;;;;5060989;28;20033;-62
2022/05/26 13:10:43;;;;;;;6.60;3.72;;;;;;;;;;5055328;28;20036;-64
2022/05/26 13:13:24;;;;;;;9.25;4.63;;;;;;;;;;5061658;28;20107;-61
2022/05/26 13:15:50;;;;;;;8.75;4.50;;;;;;;;;;5073815;28;20097;-63
2022/05/26 13:18:23;;;;;;;7.95;4.88;;;;;;;;;;5063068;28;20028;-62
2022/05/26 13:20:48;;;;;;;8.70;4.20;;;;;;;;;;5067952;28;20036;-60
2022/05/26 13:23:30;;;;;;;8.23;3.95;;;;;;;;;;5074801;28;20032;-62
2022/05/26 13:25:57;;;;;;;8.57;4.57;;;;;;;;;;5042052;28;20032;-61
2022/05/26 13:28:29;;;;;;;6.43;3.75;;;;;;;;;;5061377;28;20120;-60
2022/05/26 13:33:48;;;;;;;8.75;4.18;;;;;;;;;;5058553;28;20059;-60
2022/05/26 13:36:25;;;;;;;7.95;3.95;;;;;;;;;;5069959;28;20042;-61
2022/05/26 13:38:50;;;;;;;7.28;3.53;;;;;;;;;;5074421;28;20032;-60
2022/05/26 13:41:22;;;;;;;7.45;3.70;;;;;;;;;;5060526;28;20166;-60
2022/05/26 13:43:49;;;;;;;7.53;3.47;;;;;;;;;;5074023;28;20542;-62
2022/05/26 13:46:33;;;;;;;6.18;3.50;;;;;;;;;;5071970;28;20067;-63
2022/05/26 13:49:02;;;;;;;8.50;3.30;;;;;;;;;;5072873;28;20107;-64
2022/05/26 13:51:37;;;;;;;8.48;4.15;;;;;;;;;;5049718;28;20039;-63
2022/05/26 13:54:30;;;;;;;6.07;3.58;;;;;;;;;;5036088;28;20049;-62
2022/05/26 13:57:02;;;;;;;6.88;3.70;;;;;;;;;;5061090;28;20025;-62
2022/05/26 13:59:33;;;;;;;8.70;3.95;;;;;;;;;;5054843;28;20044;-62
2022/05/26 14:02:18;;;;;;;5.75;3.60;;;;;;;;;;5063604;28;20032;-62
2022/05/26 14:05:16;;;;;;;6.28;3.85;;;;;;;;;;5065936;28;20240;-61
2022/05/26 14:07:43;;;;;;;8.95;3.70;;;;;;;;;;5062712;28;20051;-62
2022/05/26 14:10:09;;;;;;;5.93;3.42;;;;;;;;;;5053800;28;20119;-62
2022/05/26 14:12:35;;;;;;;5.38;3.55;;;;;;;;;;5066748;28;20108;-61
2022/05/26 14:15:01;;;;;;;6.93;3.33;;;;;;;;;;5073617;28;20037;-60
2022/05/26 14:17:36;;;;;;;6.55;2.95;;;;;;;;;;5068872;28;20490;-60
2022/05/26 14:20:25;;;;;;;9.93;3.30;;;;;;;;;;5061090;28;20035;-60
2022/05/26 14:22:52;;;;;;;7.32;3.30;;;;;;;;;;5068154;28;20033;-60
2022/05/26 14:25:22;;;;;;;6.97;3.00;;;;;;;;;;5062371;28;20122;-60
2022/05/26 14:27:56;;;;;;;;;;;;;;;;;;5053849;28;20033;-60
2022/05/26 14:30:30;;;;;;;8.13;3.70;;;;;;;;;;5035487;28;19909;-60
2022/05/26 14:33:06;;;;;;;5.30;2.80;;;;;;;;;;5052152;28;20033;-60
2022/05/26 14:35:32;;;;;;;7.47;2.83;;;;;;;;;;5055907;28;20538;-60
2022/05/26 14:37:57;;;;;;;5.82;3.00;;;;;;;;;;5053359;28;20119;-60
2022/05/26 14:40:22;;;;;;;8.07;3.00;;;;;;;;;;5054858;28;20032;-59
2022/05/26 14:42:48;;;;;;;5.65;2.83;;;;;;;;;;5072329;28;20039;-60
2022/05/26 14:45:19;;;;;;;7.07;3.35;;;;;;;;;;5073034;28;20021;-59
2022/05/26 14:47:45;;;;;;;7.05;3.45;;;;;;;;;;5072202;28;20017;-59
2022/05/26 14:50:12;;;;;;;8.18;3.20;;;;;;;;;;5045531;28;20037;-59
2022/05/26 14:52:40;;;;;;;6.05;3.20;;;;;;;;;;5080017;28;20361;-58
2022/05/26 14:55:27;;;;;;;7.13;3.70;;;;;;;;;;5072597;28;20056;-58
2022/05/26 14:57:57;;;;;;;6.55;3.42;;;;;;;;;;5045787;28;20052;-59
2022/05/26 15:00:27;;;;;;;7.90;3.05;;;;;;;;;;5053185;28;20086;-58
2022/05/26 15:02:53;;;;;;;8.25;3.20;;;;;;;;;;5052765;28;20469;-59
2022/05/26 15:05:18;;;;;;;7.45;3.17;;;;;;;;;;5060073;28;20036;-58
2022/05/26 15:07:45;;;;;;;8.00;3.30;;;;;;;;;;5052027;28;20116;-59
2022/05/26 15:10:13;;;;;;;6.25;2.88;;;;;;;;;;5063056;28;20042;-58
2022/05/26 15:12:39;;;;;;;6.60;3.28;;;;;;;;;;5071756;28;20085;-58
2022/05/26 15:15:07;;;;;;;4.80;2.92;;;;;;;;;;5072597;28;20389;-58
2022/05/26 15:17:33;;;;;;;9.82;2.85;;;;;;;;;;5071765;28;20086;-58
2022/05/26 15:20:00;;;;;;;7.65;3.08;;;;;;;;;;5070716;28;20040;-59
2022/05/26 15:22:28;;;;;;;8.25;2.92;;;;;;;;;;5072183;28;20365;-59
2022/05/26 15:24:54;;;;;;;6.15;2.63;;;;;;;;;;5072321;28;20397;-59
2022/05/26 15:27:23;;;;;;;5.20;2.85;;;;;;;;;;5072416;28;20036;-58
2022/05/26 15:29:48;;;;;;;6.78;2.97;;;;;;;;;;5071487;28;20028;-58
2022/05/26 15:32:32;;;;;;;8.65;3.00;;;;;;;;;;5072051;28;20103;-58
2022/05/26 15:34:58;;;;;;;6.25;2.70;;;;;;;;;;5043661;28;20121;-59
2022/05/26 15:37:24;;;;;;;6.18;2.78;;;;;;;;;;5052275;28;20434;-59
2022/05/26 15:39:51;;;;;;;5.25;2.40;;;;;;;;;;5051114;28;20053;-59
2022/05/26 15:42:17;;;;;;;5.15;2.60;;;;;;;;;;5067555;28;20029;-59
2022/05/26 15:44:48;;;;;;;5.85;2.92;;;;;;;;;;5051078;28;20491;-59
2022/05/26 15:47:14;;;;;;;;;;;;;;;;;;5052527;28;20025;-59
2022/05/26 15:49:51;;;;;;;9.90;2.53;;;;;;;;;;5052366;28;20398;-59
2022/05/26 15:52:16;;;;;;;6.93;2.63;;;;;;;;;;5051981;28;20115;-59
2022/05/26 15:54:44;;;;;;;8.07;2.72;;;;;;;;;;5051222;28;20124;-59